sensor_id;sensor_type;location;lat;lon;timestamp;P1;durP1;ratioP1;P2;durP2;ratioP2
58017;SDS011;43810;50.860;19.226;2022-11-15T00:01:22;64.07;;;13.30;;
58017;SDS011;43810;50.860;19.226;2022-11-15T00:03:50;52.88;;;13.45;;
58017;SDS011;43810;50.860;19.226;2022-11-15T00:06:16;43.00;;;13.82;;
58017;SDS011;43810;50.860;19.226;2022-11-15T00:08:42;38.42;;;13.40;;
58017;SDS011;43810;50.860;19.226;2022-11-15T00:11:09;38.40;;;12.82;;
58017;SDS011;43810;50.860;19.226;2022-11-15T00:13:39;39.67;;;12.75;;
58017;SDS011;43810;50.860;19.226;2022-11-15T00:16:05;58.25;;;14.30;;
58017;SDS011;43810;50.860;19.226;2022-11-15T00:18:32;45.40;;;14.55;;
58017;SDS011;43810;50.860;19.226;2022-11-15T00:21:03;43.15;;;13.18;;
58017;SDS011;43810;50.860;19.226;2022-11-15T00:23:32;42.28;;;13.30;;
58017;SDS011;43810;50.860;19.226;2022-11-15T00:25:58;44.38;;;13.90;;
58017;SDS011;43810;50.860;19.226;2022-11-15T00:28:25;50.00;;;13.30;;
58017;SDS011;43810;50.860;19.226;2022-11-15T00:30:51;47.92;;;12.23;;
58017;SDS011;43810;50.860;19.226;2022-11-15T00:33:17;53.70;;;13.32;;
58017;SDS011;43810;50.860;19.226;2022-11-15T00:35:43;56.78;;;13.05;;
58017;SDS011;43810;50.860;19.226;2022-11-15T00:38:09;52.78;;;13.82;;
58017;SDS011;43810;50.860;19.226;2022-11-15T00:40:35;46.75;;;12.73;;
58017;SDS011;43810;50.860;19.226;2022-11-15T00:43:00;53.50;;;13.30;;
58017;SDS011;43810;50.860;19.226;2022-11-15T00:45:26;55.78;;;12.77;;
58017;SDS011;43810;50.860;19.226;2022-11-15T00:47:52;56.58;;;13.88;;
58017;SDS011;43810;50.860;19.226;2022-11-15T00:50:18;72.38;;;14.88;;
58017;SDS011;43810;50.860;19.226;2022-11-15T00:52:45;70.00;;;13.93;;
58017;SDS011;43810;50.860;19.226;2022-11-15T00:55:14;59.83;;;13.25;;
58017;SDS011;43810;50.860;19.226;2022-11-15T00:57:41;59.20;;;12.18;;
58017;SDS011;43810;50.860;19.226;2022-11-15T01:00:07;63.40;;;14.48;;
58017;SDS011;43810;50.860;19.226;2022-11-15T01:02:33;37.05;;;12.40;;
58017;SDS011;43810;50.860;19.226;2022-11-15T01:04:59;57.47;;;14.48;;
58017;SDS011;43810;50.860;19.226;2022-11-15T01:07:25;30.35;;;13.93;;
58017;SDS011;43810;50.860;19.226;2022-11-15T01:09:51;46.60;;;13.45;;
58017;SDS011;43810;50.860;19.226;2022-11-15T01:12:17;36.70;;;13.70;;
58017;SDS011;43810;50.860;19.226;2022-11-15T01:14:43;38.75;;;13.15;;
58017;SDS011;43810;50.860;19.226;2022-11-15T01:17:09;42.83;;;15.00;;
58017;SDS011;43810;50.860;19.226;2022-11-15T01:19:35;57.03;;;14.60;;
58017;SDS011;43810;50.860;19.226;2022-11-15T01:22:00;36.88;;;13.13;;
58017;SDS011;43810;50.860;19.226;2022-11-15T01:24:26;33.00;;;12.85;;
58017;SDS011;43810;50.860;19.226;2022-11-15T01:26:52;33.33;;;11.80;;
58017;SDS011;43810;50.860;19.226;2022-11-15T01:29:18;30.52;;;12.18;;
58017;SDS011;43810;50.860;19.226;2022-11-15T01:31:43;33.47;;;13.93;;
58017;SDS011;43810;50.860;19.226;2022-11-15T01:34:09;31.60;;;13.18;;
58017;SDS011;43810;50.860;19.226;2022-11-15T01:36:35;33.55;;;12.50;;
58017;SDS011;43810;50.860;19.226;2022-11-15T01:39:01;32.05;;;13.70;;
58017;SDS011;43810;50.860;19.226;2022-11-15T01:41:28;31.48;;;14.30;;
58017;SDS011;43810;50.860;19.226;2022-11-15T01:43:57;28.60;;;12.02;;
58017;SDS011;43810;50.860;19.226;2022-11-15T01:46:43;33.28;;;12.27;;
58017;SDS011;43810;50.860;19.226;2022-11-15T01:49:14;31.67;;;14.63;;
58017;SDS011;43810;50.860;19.226;2022-11-15T01:51:43;29.52;;;12.73;;
58017;SDS011;43810;50.860;19.226;2022-11-15T01:54:10;32.90;;;13.90;;
58017;SDS011;43810;50.860;19.226;2022-11-15T01:56:52;28.15;;;13.10;;
58017;SDS011;43810;50.860;19.226;2022-11-15T01:59:21;34.03;;;12.68;;
58017;SDS011;43810;50.860;19.226;2022-11-15T02:01:47;32.58;;;13.13;;
58017;SDS011;43810;50.860;19.226;2022-11-15T02:04:14;33.83;;;13.88;;
58017;SDS011;43810;50.860;19.226;2022-11-15T02:06:42;32.13;;;13.48;;
58017;SDS011;43810;50.860;19.226;2022-11-15T02:09:09;31.92;;;14.60;;
58017;SDS011;43810;50.860;19.226;2022-11-15T02:11:36;34.55;;;16.38;;
58017;SDS011;43810;50.860;19.226;2022-11-15T02:14:02;40.25;;;18.23;;
58017;SDS011;43810;50.860;19.226;2022-11-15T02:21:50;31.65;;;14.00;;
58017;SDS011;43810;50.860;19.226;2022-11-15T02:32:59;34.45;;;17.10;;
58017;SDS011;43810;50.860;19.226;2022-11-15T02:35:55;38.25;;;16.42;;
58017;SDS011;43810;50.860;19.226;2022-11-15T02:41:07;42.33;;;17.60;;
58017;SDS011;43810;50.860;19.226;2022-11-15T02:46:39;44.72;;;18.13;;
58017;SDS011;43810;50.860;19.226;2022-11-15T02:49:25;49.03;;;19.38;;
58017;SDS011;43810;50.860;19.226;2022-11-15T02:51:56;48.70;;;18.73;;
58017;SDS011;43810;50.860;19.226;2022-11-15T02:54:22;50.45;;;20.13;;
58017;SDS011;43810;50.860;19.226;2022-11-15T02:56:51;48.80;;;19.75;;
58017;SDS011;43810;50.860;19.226;2022-11-15T03:04:38;70.25;;;25.55;;
58017;SDS011;43810;50.860;19.226;2022-11-15T03:07:18;64.20;;;28.27;;
58017;SDS011;43810;50.860;19.226;2022-11-15T03:09:57;55.50;;;24.92;;
58017;SDS011;43810;50.860;19.226;2022-11-15T03:12:36;57.08;;;25.25;;
58017;SDS011;43810;50.860;19.226;2022-11-15T03:15:16;54.85;;;23.52;;
58017;SDS011;43810;50.860;19.226;2022-11-15T03:17:49;60.33;;;24.85;;
58017;SDS011;43810;50.860;19.226;2022-11-15T03:20:27;49.47;;;22.75;;
58017;SDS011;43810;50.860;19.226;2022-11-15T03:22:56;43.95;;;21.70;;
58017;SDS011;43810;50.860;19.226;2022-11-15T03:25:29;60.70;;;23.67;;
58017;SDS011;43810;50.860;19.226;2022-11-15T03:27:57;48.55;;;23.00;;
58017;SDS011;43810;50.860;19.226;2022-11-15T03:30:28;50.95;;;21.15;;
58017;SDS011;43810;50.860;19.226;2022-11-15T03:32:56;46.10;;;20.40;;
58017;SDS011;43810;50.860;19.226;2022-11-15T03:35:25;41.42;;;20.17;;
58017;SDS011;43810;50.860;19.226;2022-11-15T03:38:00;39.38;;;18.88;;
58017;SDS011;43810;50.860;19.226;2022-11-15T03:40:36;34.53;;;19.50;;
58017;SDS011;43810;50.860;19.226;2022-11-15T03:46:02;33.97;;;17.63;;
58017;SDS011;43810;50.860;19.226;2022-11-15T03:48:37;37.65;;;16.70;;
58017;SDS011;43810;50.860;19.226;2022-11-15T03:51:08;41.40;;;18.77;;
58017;SDS011;43810;50.860;19.226;2022-11-15T03:53:35;35.08;;;18.02;;
58017;SDS011;43810;50.860;19.226;2022-11-15T03:56:01;42.53;;;19.63;;
58017;SDS011;43810;50.860;19.226;2022-11-15T03:58:27;38.35;;;17.45;;
58017;SDS011;43810;50.860;19.226;2022-11-15T04:00:52;39.83;;;16.90;;
58017;SDS011;43810;50.860;19.226;2022-11-15T04:03:18;33.85;;;16.75;;
58017;SDS011;43810;50.860;19.226;2022-11-15T04:05:44;40.75;;;18.63;;
58017;SDS011;43810;50.860;19.226;2022-11-15T04:08:09;36.72;;;17.65;;
58017;SDS011;43810;50.860;19.226;2022-11-15T04:10:35;38.67;;;18.20;;
58017;SDS011;43810;50.860;19.226;2022-11-15T04:13:01;41.60;;;19.15;;
58017;SDS011;43810;50.860;19.226;2022-11-15T04:15:28;37.42;;;19.13;;
58017;SDS011;43810;50.860;19.226;2022-11-15T04:17:55;40.85;;;20.25;;
58017;SDS011;43810;50.860;19.226;2022-11-15T04:20:26;38.67;;;18.92;;
58017;SDS011;43810;50.860;19.226;2022-11-15T04:23:22;49.33;;;21.02;;
58017;SDS011;43810;50.860;19.226;2022-11-15T04:26:17;41.17;;;19.27;;
58017;SDS011;43810;50.860;19.226;2022-11-15T04:28:44;53.03;;;21.77;;
58017;SDS011;43810;50.860;19.226;2022-11-15T04:31:29;45.53;;;19.88;;
58017;SDS011;43810;50.860;19.226;2022-11-15T04:33:55;43.50;;;19.17;;
58017;SDS011;43810;50.860;19.226;2022-11-15T04:36:21;44.45;;;20.30;;
58017;SDS011;43810;50.860;19.226;2022-11-15T04:39:06;45.13;;;19.08;;
58017;SDS011;43810;50.860;19.226;2022-11-15T04:41:32;49.38;;;21.23;;
58017;SDS011;43810;50.860;19.226;2022-11-15T04:43:58;42.80;;;20.48;;
58017;SDS011;43810;50.860;19.226;2022-11-15T04:46:24;39.03;;;19.65;;
58017;SDS011;43810;50.860;19.226;2022-11-15T04:48:51;40.25;;;19.33;;
58017;SDS011;43810;50.860;19.226;2022-11-15T04:51:17;43.25;;;19.67;;
58017;SDS011;43810;50.860;19.226;2022-11-15T04:53:43;42.83;;;18.55;;
58017;SDS011;43810;50.860;19.226;2022-11-15T04:56:09;44.30;;;19.27;;
58017;SDS011;43810;50.860;19.226;2022-11-15T04:58:34;38.72;;;18.60;;
58017;SDS011;43810;50.860;19.226;2022-11-15T05:01:10;45.38;;;19.45;;
58017;SDS011;43810;50.860;19.226;2022-11-15T05:03:37;41.95;;;17.92;;
58017;SDS011;43810;50.860;19.226;2022-11-15T05:06:21;43.33;;;17.15;;
58017;SDS011;43810;50.860;19.226;2022-11-15T05:08:47;41.00;;;19.42;;
58017;SDS011;43810;50.860;19.226;2022-11-15T05:11:13;39.38;;;18.25;;
58017;SDS011;43810;50.860;19.226;2022-11-15T05:13:39;37.92;;;16.83;;
58017;SDS011;43810;50.860;19.226;2022-11-15T05:16:04;41.67;;;17.23;;
58017;SDS011;43810;50.860;19.226;2022-11-15T05:18:30;40.40;;;17.48;;
58017;SDS011;43810;50.860;19.226;2022-11-15T05:21:02;36.63;;;16.88;;
58017;SDS011;43810;50.860;19.226;2022-11-15T05:23:29;37.00;;;16.70;;
58017;SDS011;43810;50.860;19.226;2022-11-15T05:25:58;38.72;;;15.63;;
58017;SDS011;43810;50.860;19.226;2022-11-15T05:28:24;45.65;;;17.08;;
58017;SDS011;43810;50.860;19.226;2022-11-15T05:30:50;39.80;;;17.35;;
58017;SDS011;43810;50.860;19.226;2022-11-15T05:33:16;42.33;;;17.45;;
58017;SDS011;43810;50.860;19.226;2022-11-15T05:35:44;40.45;;;16.73;;
58017;SDS011;43810;50.860;19.226;2022-11-15T05:38:13;35.70;;;15.43;;
58017;SDS011;43810;50.860;19.226;2022-11-15T05:40:40;29.00;;;15.40;;
58017;SDS011;43810;50.860;19.226;2022-11-15T05:43:06;32.70;;;15.50;;
58017;SDS011;43810;50.860;19.226;2022-11-15T05:45:32;37.67;;;16.00;;
58017;SDS011;43810;50.860;19.226;2022-11-15T05:48:00;40.38;;;15.40;;
58017;SDS011;43810;50.860;19.226;2022-11-15T05:50:30;33.72;;;17.08;;
58017;SDS011;43810;50.860;19.226;2022-11-15T05:52:56;34.92;;;15.30;;
58017;SDS011;43810;50.860;19.226;2022-11-15T05:55:22;32.42;;;15.00;;
58017;SDS011;43810;50.860;19.226;2022-11-15T05:57:48;36.08;;;15.32;;
58017;SDS011;43810;50.860;19.226;2022-11-15T06:00:14;36.17;;;15.82;;
58017;SDS011;43810;50.860;19.226;2022-11-15T06:02:39;37.78;;;16.25;;
58017;SDS011;43810;50.860;19.226;2022-11-15T06:05:06;42.75;;;16.92;;
58017;SDS011;43810;50.860;19.226;2022-11-15T06:07:31;96.93;;;26.10;;
58017;SDS011;43810;50.860;19.226;2022-11-15T06:09:57;91.63;;;23.63;;
58017;SDS011;43810;50.860;19.226;2022-11-15T06:12:23;45.85;;;15.80;;
58017;SDS011;43810;50.860;19.226;2022-11-15T06:14:49;48.88;;;14.18;;
58017;SDS011;43810;50.860;19.226;2022-11-15T06:17:14;65.05;;;16.42;;
58017;SDS011;43810;50.860;19.226;2022-11-15T06:19:40;45.45;;;15.73;;
58017;SDS011;43810;50.860;19.226;2022-11-15T06:22:06;36.92;;;15.43;;
58017;SDS011;43810;50.860;19.226;2022-11-15T06:24:32;54.53;;;15.38;;
58017;SDS011;43810;50.860;19.226;2022-11-15T06:26:57;70.57;;;14.48;;
58017;SDS011;43810;50.860;19.226;2022-11-15T06:29:27;82.40;;;14.57;;
58017;SDS011;43810;50.860;19.226;2022-11-15T06:31:55;46.30;;;12.60;;
58017;SDS011;43810;50.860;19.226;2022-11-15T06:34:21;58.63;;;13.57;;
58017;SDS011;43810;50.860;19.226;2022-11-15T06:36:47;46.28;;;12.05;;
58017;SDS011;43810;50.860;19.226;2022-11-15T06:39:13;63.75;;;15.05;;
58017;SDS011;43810;50.860;19.226;2022-11-15T06:41:39;65.88;;;14.57;;
58017;SDS011;43810;50.860;19.226;2022-11-15T06:44:07;76.65;;;20.27;;
58017;SDS011;43810;50.860;19.226;2022-11-15T06:46:33;100.03;;;27.20;;
58017;SDS011;43810;50.860;19.226;2022-11-15T06:48:58;84.47;;;21.27;;
58017;SDS011;43810;50.860;19.226;2022-11-15T06:51:24;59.38;;;18.33;;
58017;SDS011;43810;50.860;19.226;2022-11-15T06:53:50;41.05;;;16.40;;
58017;SDS011;43810;50.860;19.226;2022-11-15T06:56:16;42.38;;;13.43;;
58017;SDS011;43810;50.860;19.226;2022-11-15T06:58:42;39.67;;;14.40;;
58017;SDS011;43810;50.860;19.226;2022-11-15T07:01:15;43.15;;;14.68;;
58017;SDS011;43810;50.860;19.226;2022-11-15T07:03:51;43.65;;;16.38;;
58017;SDS011;43810;50.860;19.226;2022-11-15T07:06:17;48.00;;;14.60;;
58017;SDS011;43810;50.860;19.226;2022-11-15T07:08:43;64.47;;;18.83;;
58017;SDS011;43810;50.860;19.226;2022-11-15T07:11:08;93.85;;;28.90;;
58017;SDS011;43810;50.860;19.226;2022-11-15T07:13:35;84.25;;;29.88;;
58017;SDS011;43810;50.860;19.226;2022-11-15T07:16:03;54.75;;;19.60;;
58017;SDS011;43810;50.860;19.226;2022-11-15T07:18:34;40.72;;;17.63;;
58017;SDS011;43810;50.860;19.226;2022-11-15T07:21:02;42.10;;;17.20;;
58017;SDS011;43810;50.860;19.226;2022-11-15T07:23:29;43.33;;;16.20;;
58017;SDS011;43810;50.860;19.226;2022-11-15T07:25:56;47.42;;;18.52;;
58017;SDS011;43810;50.860;19.226;2022-11-15T07:28:24;37.97;;;17.88;;
58017;SDS011;43810;50.860;19.226;2022-11-15T07:30:50;40.38;;;18.77;;
58017;SDS011;43810;50.860;19.226;2022-11-15T07:33:16;43.67;;;19.60;;
58017;SDS011;43810;50.860;19.226;2022-11-15T07:35:41;54.55;;;22.05;;
58017;SDS011;43810;50.860;19.226;2022-11-15T07:38:08;49.10;;;20.70;;
58017;SDS011;43810;50.860;19.226;2022-11-15T07:40:34;52.50;;;22.17;;
58017;SDS011;43810;50.860;19.226;2022-11-15T07:43:04;63.50;;;24.13;;
58017;SDS011;43810;50.860;19.226;2022-11-15T07:45:31;56.20;;;24.98;;
58017;SDS011;43810;50.860;19.226;2022-11-15T07:47:59;55.30;;;26.35;;
58017;SDS011;43810;50.860;19.226;2022-11-15T07:50:25;58.45;;;26.20;;
58017;SDS011;43810;50.860;19.226;2022-11-15T07:52:55;54.17;;;25.70;;
58017;SDS011;43810;50.860;19.226;2022-11-15T07:55:22;51.83;;;24.27;;
58017;SDS011;43810;50.860;19.226;2022-11-15T07:57:50;49.00;;;23.67;;
58017;SDS011;43810;50.860;19.226;2022-11-15T08:00:17;51.15;;;24.25;;
58017;SDS011;43810;50.860;19.226;2022-11-15T08:02:43;59.15;;;26.67;;
58017;SDS011;43810;50.860;19.226;2022-11-15T08:05:09;54.70;;;26.08;;
58017;SDS011;43810;50.860;19.226;2022-11-15T08:07:35;64.35;;;24.65;;
58017;SDS011;43810;50.860;19.226;2022-11-15T08:10:03;58.92;;;26.08;;
58017;SDS011;43810;50.860;19.226;2022-11-15T08:12:31;51.50;;;25.75;;
58017;SDS011;43810;50.860;19.226;2022-11-15T08:14:57;52.95;;;25.40;;
58017;SDS011;43810;50.860;19.226;2022-11-15T08:17:23;51.33;;;22.83;;
58017;SDS011;43810;50.860;19.226;2022-11-15T08:19:49;53.00;;;25.17;;
58017;SDS011;43810;50.860;19.226;2022-11-15T08:22:15;49.03;;;23.83;;
58017;SDS011;43810;50.860;19.226;2022-11-15T08:24:41;46.70;;;21.35;;
58017;SDS011;43810;50.860;19.226;2022-11-15T08:27:07;49.10;;;21.17;;
58017;SDS011;43810;50.860;19.226;2022-11-15T08:29:48;46.13;;;22.65;;
58017;SDS011;43810;50.860;19.226;2022-11-15T08:32:14;45.08;;;21.33;;
58017;SDS011;43810;50.860;19.226;2022-11-15T08:34:40;38.03;;;20.48;;
58017;SDS011;43810;50.860;19.226;2022-11-15T08:37:06;40.90;;;19.08;;
58017;SDS011;43810;50.860;19.226;2022-11-15T08:39:32;33.97;;;18.15;;
58017;SDS011;43810;50.860;19.226;2022-11-15T08:41:58;35.45;;;17.60;;
58017;SDS011;43810;50.860;19.226;2022-11-15T08:44:23;35.25;;;18.00;;
58017;SDS011;43810;50.860;19.226;2022-11-15T08:46:49;34.72;;;16.83;;
58017;SDS011;43810;50.860;19.226;2022-11-15T08:49:15;38.63;;;17.30;;
58017;SDS011;43810;50.860;19.226;2022-11-15T08:51:42;39.78;;;17.88;;
58017;SDS011;43810;50.860;19.226;2022-11-15T08:54:07;39.80;;;18.40;;
58017;SDS011;43810;50.860;19.226;2022-11-15T08:56:33;37.25;;;18.58;;
58017;SDS011;43810;50.860;19.226;2022-11-15T08:58:59;39.03;;;18.45;;
58017;SDS011;43810;50.860;19.226;2022-11-15T09:01:25;32.20;;;16.90;;
58017;SDS011;43810;50.860;19.226;2022-11-15T09:03:50;36.72;;;18.10;;
58017;SDS011;43810;50.860;19.226;2022-11-15T09:06:16;35.88;;;17.35;;
58017;SDS011;43810;50.860;19.226;2022-11-15T09:08:42;32.42;;;16.30;;
58017;SDS011;43810;50.860;19.226;2022-11-15T09:11:08;32.40;;;16.17;;
58017;SDS011;43810;50.860;19.226;2022-11-15T09:13:35;33.05;;;16.23;;
58017;SDS011;43810;50.860;19.226;2022-11-15T09:16:05;31.40;;;16.27;;
58017;SDS011;43810;50.860;19.226;2022-11-15T09:18:31;32.00;;;16.75;;
58017;SDS011;43810;50.860;19.226;2022-11-15T09:20:57;26.02;;;15.68;;
58017;SDS011;43810;50.860;19.226;2022-11-15T09:23:24;32.15;;;16.25;;
58017;SDS011;43810;50.860;19.226;2022-11-15T09:25:50;31.63;;;16.52;;
58017;SDS011;43810;50.860;19.226;2022-11-15T09:28:16;31.35;;;15.35;;
58017;SDS011;43810;50.860;19.226;2022-11-15T09:30:43;30.88;;;16.02;;
58017;SDS011;43810;50.860;19.226;2022-11-15T09:33:12;38.40;;;16.90;;
58017;SDS011;43810;50.860;19.226;2022-11-15T09:35:38;29.95;;;15.77;;
58017;SDS011;43810;50.860;19.226;2022-11-15T09:38:06;34.55;;;16.17;;
58017;SDS011;43810;50.860;19.226;2022-11-15T09:40:32;32.80;;;16.08;;
58017;SDS011;43810;50.860;19.226;2022-11-15T09:45:30;28.98;;;15.02;;
58017;SDS011;43810;50.860;19.226;2022-11-15T09:50:41;27.90;;;15.73;;
58017;SDS011;43810;50.860;19.226;2022-11-15T09:53:12;32.13;;;14.60;;
58017;SDS011;43810;50.860;19.226;2022-11-15T09:55:47;27.30;;;14.60;;
58017;SDS011;43810;50.860;19.226;2022-11-15T09:58:26;25.55;;;14.52;;
58017;SDS011;43810;50.860;19.226;2022-11-15T10:01:05;32.53;;;16.08;;
58017;SDS011;43810;50.860;19.226;2022-11-15T10:03:38;30.63;;;14.60;;
58017;SDS011;43810;50.860;19.226;2022-11-15T10:06:16;27.50;;;14.52;;
58017;SDS011;43810;50.860;19.226;2022-11-15T10:11:27;25.85;;;13.95;;
58017;SDS011;43810;50.860;19.226;2022-11-15T10:14:02;25.35;;;14.32;;
58017;SDS011;43810;50.860;19.226;2022-11-15T10:25:27;22.67;;;13.38;;
58017;SDS011;43810;50.860;19.226;2022-11-15T10:28:32;20.83;;;12.35;;
58017;SDS011;43810;50.860;19.226;2022-11-15T10:30:55;23.88;;;12.23;;
58017;SDS011;43810;50.860;19.226;2022-11-15T10:41:15;18.60;;;11.95;;
58017;SDS011;43810;50.860;19.226;2022-11-15T10:46:38;21.70;;;10.93;;
58017;SDS011;43810;50.860;19.226;2022-11-15T10:49:27;23.15;;;11.93;;
58017;SDS011;43810;50.860;19.226;2022-11-15T10:52:04;19.30;;;10.30;;
58017;SDS011;43810;50.860;19.226;2022-11-15T10:54:50;21.23;;;12.05;;
58017;SDS011;43810;50.860;19.226;2022-11-15T10:57:49;16.38;;;10.45;;
58017;SDS011;43810;50.860;19.226;2022-11-15T11:02:55;24.35;;;13.93;;
58017;SDS011;43810;50.860;19.226;2022-11-15T11:08:42;20.88;;;11.50;;
58017;SDS011;43810;50.860;19.226;2022-11-15T11:10:56;19.48;;;10.93;;
58017;SDS011;43810;50.860;19.226;2022-11-15T11:13:24;21.45;;;11.73;;
58017;SDS011;43810;50.860;19.226;2022-11-15T11:21:26;25.38;;;13.25;;
58017;SDS011;43810;50.860;19.226;2022-11-15T11:24:23;21.40;;;11.85;;
58017;SDS011;43810;50.860;19.226;2022-11-15T11:40:01;21.23;;;12.15;;
58017;SDS011;43810;50.860;19.226;2022-11-15T11:50:51;26.52;;;13.55;;
58017;SDS011;43810;50.860;19.226;2022-11-15T11:53:27;25.58;;;13.48;;
58017;SDS011;43810;50.860;19.226;2022-11-15T11:56:02;25.08;;;12.63;;
58017;SDS011;43810;50.860;19.226;2022-11-15T11:58:34;22.13;;;11.88;;
58017;SDS011;43810;50.860;19.226;2022-11-15T12:03:55;22.98;;;12.80;;
58017;SDS011;43810;50.860;19.226;2022-11-15T12:07:11;22.90;;;12.70;;
58017;SDS011;43810;50.860;19.226;2022-11-15T12:09:32;24.48;;;12.93;;
58017;SDS011;43810;50.860;19.226;2022-11-15T12:14:55;22.70;;;12.25;;
58017;SDS011;43810;50.860;19.226;2022-11-15T12:17:26;23.73;;;12.27;;
58017;SDS011;43810;50.860;19.226;2022-11-15T12:19:57;22.55;;;12.55;;
58017;SDS011;43810;50.860;19.226;2022-11-15T12:22:36;29.27;;;14.10;;
58017;SDS011;43810;50.860;19.226;2022-11-15T12:27:52;25.15;;;13.02;;
58017;SDS011;43810;50.860;19.226;2022-11-15T12:30:24;20.33;;;12.23;;
58017;SDS011;43810;50.860;19.226;2022-11-15T12:33:16;22.52;;;12.77;;
58017;SDS011;43810;50.860;19.226;2022-11-15T12:36:09;21.77;;;12.38;;
58017;SDS011;43810;50.860;19.226;2022-11-15T12:41:26;21.20;;;12.98;;
58017;SDS011;43810;50.860;19.226;2022-11-15T12:43:54;22.85;;;13.77;;
58017;SDS011;43810;50.860;19.226;2022-11-15T12:46:22;27.27;;;14.98;;
58017;SDS011;43810;50.860;19.226;2022-11-15T13:02:21;27.35;;;15.60;;
58017;SDS011;43810;50.860;19.226;2022-11-15T13:04:49;33.95;;;17.08;;
58017;SDS011;43810;50.860;19.226;2022-11-15T13:07:54;32.97;;;17.30;;
58017;SDS011;43810;50.860;19.226;2022-11-15T13:15:30;33.58;;;18.02;;
58017;SDS011;43810;50.860;19.226;2022-11-15T13:18:18;31.75;;;16.58;;
58017;SDS011;43810;50.860;19.226;2022-11-15T13:20:44;30.63;;;16.77;;
58017;SDS011;43810;50.860;19.226;2022-11-15T13:23:14;35.13;;;17.50;;
58017;SDS011;43810;50.860;19.226;2022-11-15T13:28:49;33.85;;;18.48;;
58017;SDS011;43810;50.860;19.226;2022-11-15T13:33:43;38.38;;;18.50;;
58017;SDS011;43810;50.860;19.226;2022-11-15T13:36:13;33.53;;;18.60;;
58017;SDS011;43810;50.860;19.226;2022-11-15T13:38:44;34.78;;;18.55;;
58017;SDS011;43810;50.860;19.226;2022-11-15T13:43:45;37.45;;;18.55;;
58017;SDS011;43810;50.860;19.226;2022-11-15T13:48:39;39.28;;;19.30;;
58017;SDS011;43810;50.860;19.226;2022-11-15T13:51:52;44.28;;;21.00;;
58017;SDS011;43810;50.860;19.226;2022-11-15T13:56:49;42.45;;;20.23;;
58017;SDS011;43810;50.860;19.226;2022-11-15T13:59:30;43.42;;;20.38;;
58017;SDS011;43810;50.860;19.226;2022-11-15T14:02:02;39.72;;;20.00;;
58017;SDS011;43810;50.860;19.226;2022-11-15T14:04:50;45.08;;;21.80;;
58017;SDS011;43810;50.860;19.226;2022-11-15T14:09:47;45.05;;;22.10;;
58017;SDS011;43810;50.860;19.226;2022-11-15T14:12:24;49.03;;;23.70;;
58017;SDS011;43810;50.860;19.226;2022-11-15T14:14:53;49.65;;;22.67;;
58017;SDS011;43810;50.860;19.226;2022-11-15T14:17:20;47.00;;;22.80;;
58017;SDS011;43810;50.860;19.226;2022-11-15T14:19:56;50.90;;;22.88;;
58017;SDS011;43810;50.860;19.226;2022-11-15T14:22:23;51.28;;;22.33;;
58017;SDS011;43810;50.860;19.226;2022-11-15T14:25:05;42.03;;;21.92;;
58017;SDS011;43810;50.860;19.226;2022-11-15T14:27:32;44.20;;;21.95;;
58017;SDS011;43810;50.860;19.226;2022-11-15T14:29:58;38.53;;;20.13;;
58017;SDS011;43810;50.860;19.226;2022-11-15T14:32:25;44.03;;;20.40;;
58017;SDS011;43810;50.860;19.226;2022-11-15T14:34:58;41.60;;;19.85;;
58017;SDS011;43810;50.860;19.226;2022-11-15T14:37:27;47.33;;;21.35;;
58017;SDS011;43810;50.860;19.226;2022-11-15T14:39:56;43.38;;;22.65;;
58017;SDS011;43810;50.860;19.226;2022-11-15T14:42:23;56.63;;;24.30;;
58017;SDS011;43810;50.860;19.226;2022-11-15T14:44:49;87.72;;;32.20;;
58017;SDS011;43810;50.860;19.226;2022-11-15T14:47:15;80.43;;;31.42;;
58017;SDS011;43810;50.860;19.226;2022-11-15T14:49:41;76.05;;;30.90;;
58017;SDS011;43810;50.860;19.226;2022-11-15T14:52:26;67.32;;;31.67;;
58017;SDS011;43810;50.860;19.226;2022-11-15T14:54:55;66.80;;;30.60;;
58017;SDS011;43810;50.860;19.226;2022-11-15T14:57:21;58.78;;;27.10;;
58017;SDS011;43810;50.860;19.226;2022-11-15T14:59:48;49.05;;;23.92;;
58017;SDS011;43810;50.860;19.226;2022-11-15T15:02:18;48.13;;;23.42;;
58017;SDS011;43810;50.860;19.226;2022-11-15T15:04:45;49.67;;;23.27;;
58017;SDS011;43810;50.860;19.226;2022-11-15T15:07:11;58.25;;;24.40;;
58017;SDS011;43810;50.860;19.226;2022-11-15T15:09:37;58.92;;;24.52;;
58017;SDS011;43810;50.860;19.226;2022-11-15T15:12:03;50.40;;;23.73;;
58017;SDS011;43810;50.860;19.226;2022-11-15T15:14:32;52.70;;;25.02;;
58017;SDS011;43810;50.860;19.226;2022-11-15T15:16:57;59.03;;;27.92;;
58017;SDS011;43810;50.860;19.226;2022-11-15T15:19:24;65.18;;;31.17;;
58017;SDS011;43810;50.860;19.226;2022-11-15T15:21:49;59.50;;;29.20;;
58017;SDS011;43810;50.860;19.226;2022-11-15T15:24:15;61.22;;;29.40;;
58017;SDS011;43810;50.860;19.226;2022-11-15T15:26:41;70.00;;;30.80;;
58017;SDS011;43810;50.860;19.226;2022-11-15T15:29:09;67.80;;;29.98;;
58017;SDS011;43810;50.860;19.226;2022-11-15T15:31:35;70.32;;;32.60;;
58017;SDS011;43810;50.860;19.226;2022-11-15T15:34:01;65.72;;;28.05;;
58017;SDS011;43810;50.860;19.226;2022-11-15T15:36:26;67.05;;;29.80;;
58017;SDS011;43810;50.860;19.226;2022-11-15T15:38:52;139.98;;;58.55;;
58017;SDS011;43810;50.860;19.226;2022-11-15T15:41:18;128.60;;;54.20;;
58017;SDS011;43810;50.860;19.226;2022-11-15T15:43:44;128.02;;;54.42;;
58017;SDS011;43810;50.860;19.226;2022-11-15T15:46:19;169.43;;;71.40;;
58017;SDS011;43810;50.860;19.226;2022-11-15T15:48:45;112.18;;;46.60;;
58017;SDS011;43810;50.860;19.226;2022-11-15T15:51:12;81.25;;;33.53;;
58017;SDS011;43810;50.860;19.226;2022-11-15T15:53:38;84.93;;;34.58;;
58017;SDS011;43810;50.860;19.226;2022-11-15T15:56:04;68.22;;;30.58;;
58017;SDS011;43810;50.860;19.226;2022-11-15T15:58:33;63.72;;;29.63;;
58017;SDS011;43810;50.860;19.226;2022-11-15T16:00:59;69.45;;;31.85;;
58017;SDS011;43810;50.860;19.226;2022-11-15T16:03:25;72.10;;;31.83;;
58017;SDS011;43810;50.860;19.226;2022-11-15T16:05:53;83.53;;;34.00;;
58017;SDS011;43810;50.860;19.226;2022-11-15T16:08:20;82.03;;;35.10;;
58017;SDS011;43810;50.860;19.226;2022-11-15T16:10:47;83.00;;;35.30;;
58017;SDS011;43810;50.860;19.226;2022-11-15T16:13:14;82.20;;;35.70;;
58017;SDS011;43810;50.860;19.226;2022-11-15T16:15:39;79.88;;;37.42;;
58017;SDS011;43810;50.860;19.226;2022-11-15T16:18:15;98.28;;;41.38;;
58017;SDS011;43810;50.860;19.226;2022-11-15T16:20:43;84.18;;;38.55;;
58017;SDS011;43810;50.860;19.226;2022-11-15T16:23:14;96.88;;;41.85;;
58017;SDS011;43810;50.860;19.226;2022-11-15T16:25:45;89.65;;;39.60;;
58017;SDS011;43810;50.860;19.226;2022-11-15T16:28:17;80.03;;;38.80;;
58017;SDS011;43810;50.860;19.226;2022-11-15T16:30:42;95.82;;;41.47;;
58017;SDS011;43810;50.860;19.226;2022-11-15T16:33:08;97.47;;;45.25;;
58017;SDS011;43810;50.860;19.226;2022-11-15T16:35:34;90.40;;;41.10;;